Time;durP1;ratioP1;P1;durP2;ratioP2;P2;SDS_P1;SDS_P2;PMS_P1;PMS_P2;Temp;Humidity;BMP_temperature;BMP_pressure;BME280_temperature;BME280_humidity;BME280_pressure;Samples;Min_cycle;Max_cycle;Signal;HPM_P1;HPM_P2
2021/12/07 00:01:01;;;;;;;16.27;9.27;;;;;;;2.19;90.61;94744.67;1777182;81;21014;-69
2021/12/07 00:03:28;;;;;;;16.60;9.40;;;;;;;2.24;90.52;94732.97;1777364;81;21060;-69
2021/12/07 00:05:55;;;;;;;18.43;9.10;;;;;;;2.26;90.58;94733.39;1777143;80;20990;-69
2021/12/07 00:08:22;;;;;;;16.70;9.53;;;;;;;2.27;90.47;94740.36;1777160;81;21559;-70
2021/12/07 00:10:50;;;;;;;14.77;8.37;;;;;;;2.31;90.49;94740.77;1777113;81;21013;-69
2021/12/07 00:13:18;;;;;;;18.90;10.03;;;;;;;2.34;90.38;94750.31;1777281;80;21006;-69
2021/12/07 00:15:45;;;;;;;13.53;6.27;;;;;;;2.29;90.00;94758.55;1777043;81;21010;-69
2021/12/07 00:18:13;;;;;;;17.03;8.57;;;;;;;2.27;90.10;94756.38;1777384;81;21006;-69
2021/12/07 00:20:40;;;;;;;18.53;9.63;;;;;;;2.24;89.90;94752.05;1777619;80;21519;-69
2021/12/07 00:23:10;;;;;;;19.23;10.10;;;;;;;2.23;89.82;94751.63;1777278;81;21080;-69
2021/12/07 00:25:37;;;;;;;18.83;10.13;;;;;;;2.30;90.30;94752.50;1777625;81;21068;-69
2021/12/07 00:28:05;;;;;;;18.00;9.73;;;;;;;2.35;90.12;94758.57;1781903;80;21020;-69
2021/12/07 00:30:34;;;;;;;15.73;8.33;;;;;;;2.32;90.44;94759.44;1794187;80;21073;-67
2021/12/07 00:35:39;;;;;;;15.60;9.13;;;;;;;2.37;90.26;94745.98;1794014;80;21096;-69
2021/12/07 00:38:11;;;;;;;18.10;9.27;;;;;;;2.40;90.31;94742.52;1794106;80;21013;-69
2021/12/07 00:40:40;;;;;;;13.97;8.57;;;;;;;2.47;90.46;94743.35;1794423;80;21068;-70
2021/12/07 00:43:08;;;;;;;14.53;8.60;;;;;;;2.51;90.47;94750.30;1794157;80;20949;-69
2021/12/07 00:45:37;;;;;;;16.07;8.90;;;;;;;2.53;90.38;94743.36;1794017;80;21025;-69
2021/12/07 00:48:06;;;;;;;18.03;9.90;;;;;;;2.52;90.33;94739.90;1794176;80;21017;-69
2021/12/07 00:50:36;;;;;;;17.03;9.87;;;;;;;2.55;90.41;94737.28;1794173;80;21001;-70
2021/12/07 00:53:05;;;;;;;17.53;9.03;;;;;;;2.55;90.23;94741.63;1794310;80;20973;-69
2021/12/07 00:55:37;;;;;;;15.63;9.30;;;;;;;2.51;90.17;94745.95;1794261;80;21080;-69
2021/12/07 00:58:16;;;;;;;20.20;9.93;;;;;;;2.46;90.07;94741.19;1794266;80;21024;-69
2021/12/07 01:00:35;;;;;;;18.70;8.90;;;;;;;2.42;90.13;94743.80;1793026;80;21089;-69
2021/12/07 01:03:02;;;;;;;16.53;9.43;;;;;;;2.42;90.23;94738.58;1794225;80;20982;-69
2021/12/07 01:05:33;;;;;;;16.17;9.27;;;;;;;2.40;90.31;94742.95;1793889;80;21081;-69
2021/12/07 01:08:16;;;;;;;18.67;9.60;;;;;;;2.41;90.30;94742.07;1794027;80;20965;-69
2021/12/07 01:27:03;;;;;;;13.77;8.30;;;;;;;2.32;90.28;94732.55;1793934;80;21518;-69
2021/12/07 01:29:30;;;;;;;13.27;8.23;;;;;;;2.32;90.33;94729.50;1781309;80;21068;-68
2021/12/07 01:40:00;;;;;;;13.37;7.17;;;;;;;2.24;90.07;94728.62;1777368;81;22221;-69
2021/12/07 01:47:46;;;;;;;11.43;7.10;;;;;;;2.14;90.00;94712.17;1777425;81;21021;-69
2021/12/07 01:50:23;;;;;;;11.23;6.83;;;;;;;2.08;90.28;94705.65;1775933;80;21527;-69
2021/12/07 01:57:54;;;;;;;12.33;6.93;;;;;;;2.08;90.35;94704.34;1777161;81;21029;-69
2021/12/07 02:00:18;;;;;;;11.23;6.37;;;;;;;2.07;90.29;94706.53;1776349;80;20982;-68
2021/12/07 02:02:46;;;;;;;11.40;6.20;;;;;;;2.05;90.33;94696.55;1777662;80;21014;-69
2021/12/07 02:05:14;;;;;;;8.43;5.80;;;;;;;2.07;90.39;94698.72;1777536;81;21005;-69
2021/12/07 02:07:41;;;;;;;10.73;6.27;;;;;;;2.05;90.42;94691.78;1757889;81;21013;-70
2021/12/07 02:10:16;;;;;;;11.53;6.57;;;;;;;2.05;90.34;94687.87;1777201;81;21022;-69
2021/12/07 02:12:46;;;;;;;11.20;6.08;;;;;;;2.06;90.40;94682.66;1777465;81;20986;-69
2021/12/07 02:15:18;;;;;;;10.55;6.83;;;;;;;2.12;90.45;94677.47;1777203;80;21065;-69
2021/12/07 02:17:46;;;;;;;10.13;6.00;;;;;;;2.12;90.25;94665.76;1777670;80;20986;-69
2021/12/07 02:20:15;;;;;;;12.60;6.50;;;;;;;2.14;90.17;94654.02;1777506;81;21006;-69
2021/12/07 02:22:42;;;;;;;10.50;6.23;;;;;;;2.18;90.31;94651.00;1777366;80;20998;-69
2021/12/07 02:25:13;;;;;;;10.43;5.60;;;;;;;2.25;90.17;94645.78;1777602;81;21482;-69
2021/12/07 02:27:40;;;;;;;7.47;4.97;;;;;;;2.29;90.27;94641.42;1777570;80;20994;-69
2021/12/07 02:30:12;;;;;;;10.03;5.60;;;;;;;2.37;90.17;94641.00;1792162;80;21053;-69
2021/12/07 02:32:39;;;;;;;9.10;5.80;;;;;;;2.37;90.00;94634.48;1794416;80;20997;-69
2021/12/07 02:35:11;;;;;;;8.97;5.70;;;;;;;2.36;89.58;94636.20;1794136;80;21128;-69
2021/12/07 02:37:38;;;;;;;7.63;5.20;;;;;;;2.40;89.54;94633.61;1794228;80;21077;-69
2021/12/07 02:40:08;;;;;;;8.70;5.30;;;;;;;2.47;89.76;94628.80;1794384;80;20982;-69
2021/12/07 02:42:36;;;;;;;8.07;4.70;;;;;;;2.51;89.34;94635.29;1794207;80;21483;-69
2021/12/07 02:45:05;;;;;;;9.00;5.73;;;;;;;2.42;88.72;94627.53;1794322;80;21494;-69
2021/12/07 02:47:36;;;;;;;8.10;4.83;;;;;;;2.33;88.52;94622.34;1794458;80;21475;-69
2021/12/07 02:50:06;;;;;;;8.10;5.33;;;;;;;2.28;88.81;94623.64;1794288;80;21010;-69
2021/12/07 02:52:33;;;;;;;7.13;4.97;;;;;;;2.35;89.29;94621.91;1794485;80;21017;-69
2021/12/07 02:55:01;;;;;;;6.57;4.53;;;;;;;2.42;89.36;94621.43;1794312;80;20985;-69
2021/12/07 02:57:30;;;;;;;7.50;4.90;;;;;;;2.34;88.71;94627.96;1794041;80;21005;-69
2021/12/07 03:00:03;;;;;;;7.57;5.13;;;;;;;2.29;88.84;94621.91;1794166;80;21024;-69
2021/12/07 03:02:26;;;;;;;7.17;4.77;;;;;;;2.26;88.68;94627.98;1793300;80;21021;-69
2021/12/07 03:05:07;;;;;;;7.00;4.43;;;;;;;2.18;88.55;94631.48;1794298;80;20998;-69
2021/12/07 03:10:12;;;;;;;8.83;5.90;;;;;;;2.03;88.40;94629.33;1767854;80;21040;-69
2021/12/07 03:26:24;;;;;;;9.60;5.97;;;;;;;1.95;89.42;94637.14;1793914;80;21047;-69
2021/12/07 03:28:54;;;;;;;10.10;5.80;;;;;;;1.99;89.62;94638.03;1794156;80;21488;-69
2021/12/07 03:31:26;;;;;;;8.73;5.93;;;;;;;2.02;89.82;94635.41;1794691;80;21538;-69
2021/12/07 03:33:55;;;;;;;10.73;6.57;;;;;;;2.02;89.77;94625.01;1794164;80;21155;-69
2021/12/07 03:36:25;;;;;;;15.40;9.17;;;;;;;2.03;89.77;94629.33;1794460;80;21519;-69
2021/12/07 03:38:52;;;;;;;16.20;9.53;;;;;;;2.06;89.70;94637.56;1794030;80;21085;-69
2021/12/07 03:41:20;;;;;;;15.13;10.53;;;;;;;2.05;89.65;94634.10;1794241;80;21514;-69
2021/12/07 03:43:48;;;;;;;14.73;8.90;;;;;;;2.05;89.65;94633.24;1793903;80;21159;-69
2021/12/07 03:46:16;;;;;;;12.03;7.70;;;;;;;2.01;89.61;94636.70;1794222;80;20977;-69
2021/12/07 03:48:44;;;;;;;12.63;7.70;;;;;;;1.98;89.60;94631.07;1794085;80;21045;-69
2021/12/07 03:51:12;;;;;;;11.87;7.23;;;;;;;1.98;89.70;94632.81;1794075;80;21097;-69
2021/12/07 03:53:39;;;;;;;12.10;7.87;;;;;;;2.02;89.87;94633.25;1794223;80;21005;-69
2021/12/07 03:56:08;;;;;;;12.13;7.03;;;;;;;2.06;89.85;94637.56;1794007;80;21044;-69
2021/12/07 03:58:38;;;;;;;12.27;8.10;;;;;;;2.10;89.80;94634.10;1794311;80;21578;-69
2021/12/07 04:01:10;;;;;;;14.00;8.03;;;;;;;2.14;89.89;94629.30;1793903;80;21093;-69
2021/12/07 04:03:39;;;;;;;13.10;8.17;;;;;;;2.16;89.76;94627.13;1767999;80;21466;-68
2021/12/07 04:06:07;;;;;;;13.80;7.87;;;;;;;2.12;89.50;94625.42;1794052;80;21089;-69
2021/12/07 04:08:38;;;;;;;12.63;7.30;;;;;;;2.05;89.12;94623.70;1794261;80;20942;-69
2021/12/07 04:11:05;;;;;;;14.23;8.17;;;;;;;2.07;89.54;94628.91;1794009;80;21124;-69
2021/12/07 04:13:32;;;;;;;15.10;7.70;;;;;;;2.12;89.52;94625.42;1794162;80;21085;-68
2021/12/07 04:15:59;;;;;;;15.23;8.80;;;;;;;2.08;89.13;94614.58;1793845;80;21097;-69
2021/12/07 04:18:28;;;;;;;14.23;8.90;;;;;;;2.03;88.92;94622.83;1794325;80;21033;-69
2021/12/07 04:20:56;;;;;;;18.80;8.80;;;;;;;1.97;88.90;94627.19;1793894;80;21048;-69
2021/12/07 04:23:23;;;;;;;18.27;9.90;;;;;;;1.97;88.99;94621.98;1794402;80;20985;-69
2021/12/07 04:25:50;;;;;;;18.83;10.00;;;;;;;1.99;89.22;94626.32;1793956;80;21217;-69
2021/12/07 04:28:17;;;;;;;18.20;9.90;;;;;;;2.07;89.68;94621.96;1793741;80;21585;-69
2021/12/07 04:30:44;;;;;;;18.13;10.03;;;;;;;2.10;89.71;94619.34;1793706;80;21137;-69
2021/12/07 04:33:12;;;;;;;20.93;9.90;;;;;;;2.18;89.77;94617.17;1794193;80;21518;-69
2021/12/07 04:35:44;;;;;;;17.80;10.07;;;;;;;2.22;89.44;94624.97;1793899;80;21025;-69
2021/12/07 04:38:12;;;;;;;19.20;10.13;;;;;;;2.19;89.13;94624.95;1794358;80;20974;-69
2021/12/07 04:40:39;;;;;;;18.70;10.20;;;;;;;2.19;89.10;94619.75;1794436;80;21476;-69
2021/12/07 04:43:08;;;;;;;17.90;9.63;;;;;;;2.18;89.04;94619.33;1794177;80;21479;-69
2021/12/07 04:59:16;;;;;;;19.23;10.30;;;;;;;2.38;89.09;94616.24;1793851;80;21032;-69
2021/12/07 05:01:44;;;;;;;24.60;13.73;;;;;;;2.33;88.89;94622.34;1794031;80;21067;-70
2021/12/07 05:04:18;;;;;;;22.67;12.73;;;;;;;2.32;88.83;94616.71;1793783;80;20974;-69
2021/12/07 05:06:48;;;;;;;26.13;13.70;;;;;;;2.26;88.67;94610.20;1793763;80;21021;-69
2021/12/07 05:09:33;;;;;;;21.43;12.03;;;;;;;2.21;88.72;94612.81;1793271;80;21467;-69
2021/12/07 05:12:16;;;;;;;33.33;17.63;;;;;;;2.15;88.64;94612.40;1791526;80;21507;-70
2021/12/07 05:14:26;;;;;;;24.20;13.43;;;;;;;2.10;88.62;94620.65;1790490;80;21068;-69
2021/12/07 05:24:27;;;;;;;17.97;9.50;;;;;;;1.78;89.16;94632.83;1794028;80;21048;-70
2021/12/07 05:37:47;;;;;;;22.97;12.13;;;;;;;1.53;90.18;94614.62;1777368;80;21076;-70
2021/12/07 05:40:16;;;;;;;19.67;10.80;;;;;;;1.51;90.19;94617.64;1777366;80;21090;-70
2021/12/07 05:42:43;;;;;;;19.13;10.27;;;;;;;1.51;90.40;94621.55;1777855;80;21017;-70
2021/12/07 05:45:17;;;;;;;22.53;12.57;;;;;;;1.50;90.49;94624.58;1776950;81;21057;-70
2021/12/07 05:47:45;;;;;;;22.13;11.43;;;;;;;1.53;90.51;94625.02;1777692;81;21010;-70
2021/12/07 05:50:17;;;;;;;19.97;10.97;;;;;;;1.52;90.50;94623.30;1777704;81;21022;-70
2021/12/07 05:52:43;;;;;;;18.67;10.33;;;;;;;1.56;90.56;94628.91;1777413;81;21022;-70
2021/12/07 05:55:10;;;;;;;20.10;10.83;;;;;;;1.58;90.53;94624.58;1777244;81;21009;-70
2021/12/07 05:57:38;;;;;;;19.93;11.53;;;;;;;1.58;90.53;94620.69;1777307;80;20986;-69
2021/12/07 06:00:10;;;;;;;21.60;12.40;;;;;;;1.59;90.47;94618.94;1777320;81;20986;-69
2021/12/07 06:02:40;;;;;;;20.37;11.90;;;;;;;1.61;90.43;94619.37;1777320;81;21018;-70
2021/12/07 06:05:09;;;;;;;16.90;10.40;;;;;;;1.65;90.37;94612.46;1777035;81;21025;-70
2021/12/07 06:07:35;;;;;;;13.50;8.53;;;;;;;1.62;90.27;94613.33;1776255;80;20999;-70
2021/12/07 06:10:04;;;;;;;13.10;8.37;;;;;;;1.59;90.15;94611.14;1758991;81;21069;-70
2021/12/07 06:12:31;;;;;;;14.30;8.93;;;;;;;1.58;90.13;94608.98;1759117;81;21096;-72
2021/12/07 06:14:57;;;;;;;16.80;8.67;;;;;;;1.59;90.23;94605.95;1758922;81;21065;-72
2021/12/07 06:17:24;;;;;;;21.30;9.87;;;;;;;1.58;90.18;94606.38;1778188;80;21142;-71
2021/12/07 06:19:51;;;;;;;13.63;7.80;;;;;;;1.61;90.23;94609.41;1778511;81;21057;-69
2021/12/07 06:22:18;;;;;;;15.33;8.40;;;;;;;1.59;90.02;94611.14;1779213;80;21050;-70
2021/12/07 06:24:45;;;;;;;13.33;8.23;;;;;;;1.60;90.11;94603.36;1778764;80;20983;-70
2021/12/07 06:27:11;;;;;;;15.20;9.00;;;;;;;1.65;90.21;94601.62;1778786;81;21141;-69
2021/12/07 06:29:38;;;;;;;12.40;8.23;;;;;;;1.75;90.27;94606.83;1780229;80;21019;-69
2021/12/07 06:32:07;;;;;;;13.20;7.53;;;;;;;1.79;90.17;94603.34;1787002;80;21112;-67
2021/12/07 06:34:34;;;;;;;12.67;7.80;;;;;;;1.83;89.92;94594.67;1786995;80;21511;-70
2021/12/07 06:37:03;;;;;;;12.60;8.83;;;;;;;1.84;89.85;94609.40;1786973;80;21096;-72
2021/12/07 06:39:30;;;;;;;15.97;10.13;;;;;;;1.87;89.77;94614.63;1787550;80;21077;-70
2021/12/07 06:41:57;;;;;;;17.70;9.90;;;;;;;1.86;89.52;94618.94;1787166;80;21022;-69
2021/12/07 06:44:24;;;;;;;18.03;10.97;;;;;;;1.83;89.30;94615.04;1787120;80;20971;-67
2021/12/07 06:46:52;;;;;;;15.23;9.70;;;;;;;1.83;89.26;94621.98;1787038;80;21023;-68
2021/12/07 06:49:20;;;;;;;14.80;10.07;;;;;;;1.73;89.13;94614.17;1780284;80;21390;-69
2021/12/07 06:51:49;;;;;;;14.63;9.80;;;;;;;1.66;89.19;94615.08;1782640;80;21049;-69
2021/12/07 06:54:16;;;;;;;16.03;9.77;;;;;;;1.68;89.27;94621.55;1787111;80;21503;-72
2021/12/07 06:56:44;;;;;;;14.63;9.07;;;;;;;1.64;89.20;94615.50;1786119;80;21026;-72
2021/12/07 06:59:11;;;;;;;14.50;9.63;;;;;;;1.59;89.15;94620.24;1786482;80;21026;-70
2021/12/07 07:01:38;;;;;;;18.97;11.27;;;;;;;1.57;89.25;94621.56;1786592;80;21185;-71
2021/12/07 07:04:04;;;;;;;16.43;10.10;;;;;;;;;;1766722;81;21057;-71
2021/12/07 07:06:31;;;;;;;14.80;10.27;;;;;;;1.57;89.35;94627.20;1786461;80;20987;-77
2021/12/07 07:08:57;;;;;;;15.13;10.07;;;;;;;1.51;89.28;94618.94;1767614;81;21554;-70
2021/12/07 07:11:25;;;;;;;16.27;10.20;;;;;;;1.48;89.40;94621.11;1787360;80;21053;-69
2021/12/07 07:13:51;;;;;;;15.70;9.77;;;;;;;1.49;89.51;94621.56;1768082;81;21049;-71
2021/12/07 07:16:18;;;;;;;18.23;10.83;;;;;;;1.46;89.54;94624.58;1768019;81;22286;-69
2021/12/07 07:18:45;;;;;;;25.03;13.80;;;;;;;1.46;89.56;94626.77;1787277;80;21054;-73
2021/12/07 07:21:12;;;;;;;19.13;10.97;;;;;;;1.45;89.67;94626.31;1767572;81;21094;-81
2021/12/07 07:23:38;;;;;;;22.07;12.63;;;;;;;1.47;89.46;94618.53;1787122;79;20995;-81
2021/12/07 07:26:06;;;;;;;14.30;8.93;;;;;;;1.42;89.37;94629.36;1754432;81;21050;-84
2021/12/07 07:28:34;;;;;;;25.23;14.33;;;;;;;1.44;89.48;94622.44;1753528;81;21116;-77
2021/12/07 07:31:04;;;;;;;17.83;9.83;;;;;;;1.45;89.53;94622.41;1789328;80;21005;-70
2021/12/07 07:33:30;;;;;;;15.07;8.07;;;;;;;1.45;89.36;94608.12;1779998;79;21440;-76
2021/12/07 07:35:57;;;;;;;13.30;7.53;;;;;;;1.39;89.18;94615.92;1792127;80;21033;-78
2021/12/07 07:38:24;;;;;;;12.33;7.80;;;;;;;1.34;89.22;94615.50;1801082;80;21026;-71
2021/12/07 07:40:51;;;;;;;14.27;8.80;;;;;;;1.33;89.29;94624.14;1792681;80;21117;-71
2021/12/07 07:43:20;;;;;;;13.97;8.30;;;;;;;1.23;89.51;94622.81;1772772;80;20994;-70
2021/12/07 07:45:50;;;;;;;17.33;9.80;;;;;;;1.19;89.80;94625.44;1800667;80;21011;-79
2021/12/07 07:48:20;;;;;;;18.60;9.87;;;;;;;1.22;89.84;94636.69;1801793;80;20958;-70
2021/12/07 07:50:49;;;;;;;17.40;9.63;;;;;;;1.24;89.83;94628.91;1801793;80;21034;-75
2021/12/07 07:53:17;;;;;;;17.47;9.80;;;;;;;1.27;89.84;94636.26;1798694;80;21016;-72
2021/12/07 07:55:44;;;;;;;15.93;9.53;;;;;;;1.25;89.85;94630.19;1800828;80;21010;-73
2021/12/07 07:58:12;;;;;;;12.97;9.03;;;;;;;1.25;89.84;94633.22;1800826;80;21041;-72
2021/12/07 08:00:42;;;;;;;12.23;7.80;;;;;;;1.27;89.73;94628.91;1799235;80;21136;-72
2021/12/07 08:03:09;;;;;;;16.13;9.60;;;;;;;1.27;89.50;94634.09;1801343;80;21033;-70
2021/12/07 08:05:36;;;;;;;17.63;10.03;;;;;;;1.30;89.68;94631.06;1800970;80;20974;-70
2021/12/07 08:08:04;;;;;;;19.30;11.37;;;;;;;1.33;89.53;94632.80;1800884;80;21006;-73
2021/12/07 08:10:31;;;;;;;18.47;10.33;;;;;;;1.33;89.53;94628.03;1800567;80;21531;-75
2021/12/07 08:13:02;;;;;;;21.23;10.70;;;;;;;1.37;89.45;94633.69;1800742;80;20983;-70
2021/12/07 08:15:31;;;;;;;15.70;9.80;;;;;;;1.37;89.39;94626.75;1801006;80;21064;-71
2021/12/07 08:17:58;;;;;;;12.27;8.23;;;;;;;1.47;89.58;94627.63;1801284;80;20954;-73
2021/12/07 08:20:27;;;;;;;10.23;7.30;;;;;;;1.50;89.19;94625.02;1801165;80;21391;-71
2021/12/07 08:22:54;;;;;;;10.60;6.73;;;;;;;1.49;88.96;94624.16;1783090;80;21019;-80
2021/12/07 08:25:21;;;;;;;11.20;6.67;;;;;;;1.49;88.68;94625.46;1763169;81;21087;-71
2021/12/07 08:27:48;;;;;;;10.70;7.20;;;;;;;1.49;88.54;94627.20;1763399;81;21126;-78
2021/12/07 08:30:16;;;;;;;7.83;5.80;;;;;;;1.51;88.63;94628.05;1760029;81;21586;-78
2021/12/07 08:32:45;;;;;;;9.00;6.03;;;;;;;1.53;88.50;94626.31;1749701;82;21020;-75
2021/12/07 08:35:17;;;;;;;9.37;5.80;;;;;;;1.56;88.23;94630.20;1749761;82;21067;-78
2021/12/07 08:37:46;;;;;;;10.70;6.37;;;;;;;1.57;88.12;94629.36;1750045;82;21081;-75
2021/12/07 08:40:18;;;;;;;8.83;6.10;;;;;;;1.54;87.76;94629.37;1749923;82;21060;-84
2021/12/07 08:42:46;;;;;;;11.00;6.80;;;;;;;1.53;87.62;94629.36;1750225;82;21478;-80
2021/12/07 08:45:13;;;;;;;8.53;6.43;;;;;;;1.52;87.67;94627.20;1749831;82;21179;-75
2021/12/07 08:47:39;;;;;;;9.10;6.70;;;;;;;1.46;87.48;94625.47;1749531;82;21061;-72
2021/12/07 08:50:12;;;;;;;8.93;6.40;;;;;;;1.48;87.60;94621.11;1750266;82;21064;-78
2021/12/07 08:52:39;;;;;;;8.23;6.87;;;;;;;1.46;87.55;94629.36;1750861;82;21107;-77
2021/12/07 09:00:32;;;;;;;9.43;6.87;;;;;;;1.37;87.72;94621.98;1750292;82;21036;-70
2021/12/07 09:02:59;;;;;;;9.23;6.10;;;;;;;1.34;87.74;94628.48;1749770;82;21124;-70
2021/12/07 09:05:26;;;;;;;10.17;6.70;;;;;;;1.28;87.78;94626.72;1750372;82;21059;-71
2021/12/07 09:07:53;;;;;;;11.07;7.40;;;;;;;1.26;87.99;94625.44;1750071;82;21206;-68
2021/12/07 09:10:20;;;;;;;10.27;6.57;;;;;;;1.23;88.10;94621.52;1749640;82;20997;-70
2021/12/07 09:12:48;;;;;;;9.77;6.70;;;;;;;1.25;88.10;94628.03;1749765;82;21095;-69
2021/12/07 09:15:15;;;;;;;8.07;5.57;;;;;;;1.27;88.18;94622.41;1750508;82;21042;-74
2021/12/07 09:17:41;;;;;;;9.60;6.37;;;;;;;1.26;88.16;94618.95;1750475;82;21029;-81
2021/12/07 09:20:15;;;;;;;9.60;6.90;;;;;;;1.28;88.15;94610.70;1749849;82;21079;-81
2021/12/07 09:22:40;;;;;;;8.37;5.60;;;;;;;1.26;88.04;94617.65;1750219;82;21168;-77
2021/12/07 09:25:07;;;;;;;8.63;6.50;;;;;;;1.24;88.12;94611.58;1750514;82;21020;-79
2021/12/07 09:27:34;;;;;;;9.77;6.80;;;;;;;1.28;88.13;94609.83;1750181;82;21147;-81
2021/12/07 09:30:00;;;;;;;9.50;6.90;;;;;;;1.36;88.29;94613.73;1749916;82;21143;-78
2021/12/07 09:32:27;;;;;;;10.87;7.93;;;;;;;1.32;87.69;94603.78;1725459;81;21064;-75
2021/12/07 09:34:54;;;;;;;13.23;8.40;;;;;;;1.32;87.66;94599.89;1774936;81;21026;-77
2021/12/07 09:37:21;;;;;;;10.40;6.97;;;;;;;1.34;87.80;94601.20;1779054;81;21071;-71
2021/12/07 09:39:48;;;;;;;10.67;6.67;;;;;;;1.35;87.84;94600.32;1779357;81;21150;-73
2021/12/07 09:42:15;;;;;;;11.00;7.80;;;;;;;1.33;87.68;94592.95;1779254;81;21016;-76
2021/12/07 09:44:42;;;;;;;16.93;10.20;;;;;;;1.36;87.65;94593.84;1778632;81;21554;-74
2021/12/07 09:47:08;;;;;;;14.67;9.93;;;;;;;1.38;87.66;94593.82;1778817;80;21127;-82
2021/12/07 09:49:35;;;;;;;14.77;10.40;;;;;;;1.40;87.72;94592.95;1778996;81;21516;-76
2021/12/07 09:52:02;;;;;;;11.37;8.80;;;;;;;1.42;87.63;94591.67;1778816;81;21106;-82
2021/12/07 09:54:29;;;;;;;12.27;8.57;;;;;;;1.40;87.52;94585.16;1779073;81;21097;-69
2021/12/07 09:56:56;;;;;;;14.77;9.20;;;;;;;1.35;87.35;94578.23;1779100;81;21019;-77
2021/12/07 09:59:23;;;;;;;13.87;9.67;;;;;;;1.34;87.43;94581.71;1779003;81;21141;-81
2021/12/07 10:01:50;;;;;;;15.77;9.23;;;;;;;1.31;87.27;94579.98;1779257;81;21074;-70
2021/12/07 10:04:17;;;;;;;13.37;9.30;;;;;;;1.21;87.22;94571.30;1779032;81;21090;-83
2021/12/07 10:06:43;;;;;;;13.90;9.63;;;;;;;1.17;87.48;94572.16;1776889;80;21018;-71
2021/12/07 10:09:10;;;;;;;13.80;9.03;;;;;;;1.10;87.64;94564.35;1756377;80;21540;-68
2021/12/07 10:11:37;;;;;;;10.60;7.70;;;;;;;1.08;87.88;94574.33;1764160;81;20999;-69
2021/12/07 10:14:04;;;;;;;11.87;7.93;;;;;;;1.07;87.92;94579.06;1754823;81;21134;-69
2021/12/07 10:16:31;;;;;;;12.83;8.97;;;;;;;1.03;88.01;94569.96;1737769;82;21031;-68
2021/12/07 10:18:58;;;;;;;11.20;7.93;;;;;;;1.05;88.04;94565.20;1706661;82;21063;-67
2021/12/07 10:21:31;;;;;;;10.43;6.50;;;;;;;1.02;88.12;94565.20;1750745;81;21015;-70
2021/12/07 10:24:06;;;;;;;14.85;8.83;;;;;;;1.01;88.13;94562.19;1731569;81;21157;-72
2021/12/07 10:26:35;;;;;;;11.45;7.50;;;;;;;1.03;88.24;94566.95;1735111;81;21025;-69
2021/12/07 10:29:15;;;;;;;9.80;7.70;;;;;;;1.04;88.08;94565.22;1767702;81;20998;-77
2021/12/07 10:31:55;;;;;;;10.03;7.60;;;;;;;1.05;88.23;94556.55;1773303;81;21033;-77
2021/12/07 10:34:29;;;;;;;11.40;7.63;;;;;;;1.10;88.10;94565.66;1748051;81;20982;-78
2021/12/07 10:37:09;;;;;;;8.63;5.92;;;;;;;1.13;88.12;94565.20;1743517;82;21504;-78
2021/12/07 10:39:41;;;;;;;9.77;7.63;;;;;;;1.13;87.84;94565.20;1741886;82;21030;-71
2021/12/07 10:42:21;;;;;;;9.43;6.87;;;;;;;1.18;87.68;94565.22;1722479;83;21041;-75
2021/12/07 10:44:49;;;;;;;11.77;8.20;;;;;;;1.15;87.57;94560.89;1738262;82;21113;-72
2021/12/07 10:47:20;;;;;;;9.57;7.63;;;;;;;1.19;87.53;94558.73;1756749;82;21522;-71
2021/12/07 10:49:51;;;;;;;10.50;7.20;;;;;;;1.14;87.54;94561.77;1745699;82;21042;-73
2021/12/07 10:52:40;;;;;;;8.47;6.67;;;;;;;1.15;87.37;94557.43;1742243;82;21542;-76
2021/12/07 10:55:18;;;;;;;9.40;7.00;;;;;;;1.13;87.22;94556.55;1741940;82;21038;-75
2021/12/07 10:57:58;;;;;;;10.33;7.33;;;;;;;1.11;87.34;94562.17;1741726;82;21099;-70
2021/12/07 11:00:37;;;;;;;11.23;8.00;;;;;;;1.12;87.24;94557.00;1741576;82;21056;-73
2021/12/07 11:03:11;;;;;;;11.03;7.37;;;;;;;1.08;87.34;94560.44;1741310;82;21533;-72
2021/12/07 11:05:51;;;;;;;10.67;7.70;;;;;;;1.10;87.42;94554.82;1741570;82;21028;-72
2021/12/07 11:08:21;;;;;;;9.57;6.63;;;;;;;1.15;87.52;94555.69;1741439;82;21020;-72
2021/12/07 11:10:50;;;;;;;14.87;8.87;;;;;;;1.17;87.21;94553.11;1741265;82;21119;-72
2021/12/07 11:13:24;;;;;;;13.83;8.60;;;;;;;1.16;87.09;94549.65;1741499;82;21048;-73
2021/12/07 11:15:57;;;;;;;11.97;8.53;;;;;;;1.15;87.03;94541.40;1742294;82;21129;-73
2021/12/07 11:18:41;;;;;;;14.03;9.67;;;;;;;1.12;86.95;94549.20;1741660;82;21286;-73
2021/12/07 11:21:15;;;;;;;12.23;8.33;;;;;;;1.14;87.09;94549.22;1742297;82;21071;-73
2021/12/07 11:23:53;;;;;;;14.37;10.47;;;;;;;1.11;87.00;94545.29;1741098;82;21025;-73
2021/12/07 11:31:52;;;;;;;11.90;7.87;;;;;;;0.91;87.29;94538.37;1735540;82;21534;-72
2021/12/07 11:34:28;;;;;;;14.53;9.30;;;;;;;0.91;87.50;94542.67;1727231;83;21072;-72
2021/12/07 11:37:04;;;;;;;10.10;7.27;;;;;;;0.90;87.42;94543.11;1726325;83;21009;-72
2021/12/07 11:39:49;;;;;;;12.70;8.60;;;;;;;0.83;87.48;94542.66;1728377;83;21503;-73
2021/12/07 11:42:23;;;;;;;11.60;7.97;;;;;;;0.80;87.74;94542.22;1728549;83;21129;-73
2021/12/07 11:45:00;;;;;;;14.60;9.53;;;;;;;0.80;87.73;94535.73;1728745;83;21077;-73
2021/12/07 11:47:33;;;;;;;11.40;8.43;;;;;;;0.82;87.80;94539.20;1728592;83;21113;-73
2021/12/07 11:50:05;;;;;;;13.87;9.87;;;;;;;0.81;87.97;94535.33;1728693;83;21048;-73
2021/12/07 11:52:32;;;;;;;16.93;9.90;;;;;;;0.84;87.95;94534.02;1711956;83;21156;-73
2021/12/07 11:54:58;;;;;;;12.93;8.90;;;;;;;0.86;88.04;94529.27;1730587;82;21070;-73
2021/12/07 11:57:25;;;;;;;10.63;8.27;;;;;;;0.89;88.05;94534.89;1730125;83;21114;-73
2021/12/07 11:59:52;;;;;;;13.17;8.97;;;;;;;0.93;87.91;94530.13;1730529;83;20995;-73
2021/12/07 12:02:18;;;;;;;16.20;10.17;;;;;;;0.98;88.05;94531.42;1730558;83;21042;-73
2021/12/07 12:04:47;;;;;;;10.13;7.53;;;;;;;0.99;87.72;94533.18;1730314;83;20998;-73
2021/12/07 12:07:14;;;;;;;10.43;7.27;;;;;;;1.04;87.56;94534.91;1730221;83;21086;-73
2021/12/07 12:09:52;;;;;;;11.73;7.87;;;;;;;0.97;87.04;94534.47;1730425;83;21561;-73
2021/12/07 12:13:08;;;;;;;14.07;10.07;;;;;;;1.02;87.08;94527.98;1729274;83;21563;-73
2021/12/07 12:16:16;;;;;;;22.30;14.20;;;;;;;0.99;87.10;94530.58;1730607;82;21006;-73
2021/12/07 12:19:07;;;;;;;16.97;11.23;;;;;;;0.99;87.12;94524.95;1730019;83;21085;-73
2021/12/07 12:22:02;;;;;;;22.47;13.67;;;;;;;1.03;87.13;94523.20;1730444;82;21046;-73
2021/12/07 12:24:47;;;;;;;17.53;10.40;;;;;;;1.05;87.09;94525.38;1730291;83;21137;-73
2021/12/07 12:27:32;;;;;;;17.30;11.30;;;;;;;1.00;87.05;94522.77;1730468;83;21038;-73
2021/12/07 12:30:21;;;;;;;16.57;10.17;;;;;;;1.00;87.15;94525.38;1730464;83;21053;-73
2021/12/07 12:32:56;;;;;;;18.67;9.90;;;;;;;0.96;87.20;94527.55;1736645;82;21085;-73
2021/12/07 12:35:35;;;;;;;13.53;9.80;;;;;;;0.94;87.20;94527.97;1738849;82;21046;-73
2021/12/07 12:38:02;;;;;;;17.37;9.67;;;;;;;0.96;87.35;94522.36;1739173;82;21106;-73
2021/12/07 12:40:32;;;;;;;18.63;11.87;;;;;;;0.94;87.29;94523.22;1738700;82;21105;-73
2021/12/07 12:43:02;;;;;;;28.60;12.37;;;;;;;0.96;87.37;94521.47;1739546;82;20994;-73
2021/12/07 12:45:37;;;;;;;71.70;37.27;;;;;;;0.95;87.44;94523.20;1742228;82;21158;-73
2021/12/07 12:48:09;;;;;;;86.67;38.53;;;;;;;0.96;87.44;94524.95;1742189;82;21538;-72
2021/12/07 12:50:53;;;;;;;18.43;10.63;;;;;;;0.96;87.48;94521.47;1731082;83;21073;-73
2021/12/07 12:53:25;;;;;;;19.87;11.47;;;;;;;0.95;87.84;94522.34;1738327;82;21468;-73
2021/12/07 12:56:11;;;;;;;28.43;16.47;;;;;;;0.95;87.89;94520.61;1739195;82;21487;-73
2021/12/07 12:58:45;;;;;;;23.10;14.87;;;;;;;0.99;87.92;94524.09;1742217;82;21017;-73
2021/12/07 13:01:33;;;;;;;27.03;16.43;;;;;;;0.97;87.65;94526.67;1730714;83;21037;-73
2021/12/07 13:04:14;;;;;;;21.57;13.77;;;;;;;1.00;87.66;94528.41;1729834;83;21026;-73
2021/12/07 13:06:50;;;;;;;19.23;11.57;;;;;;;0.99;87.68;94531.88;1731094;83;20991;-73
2021/12/07 13:09:23;;;;;;;22.30;14.63;;;;;;;0.94;87.70;94533.17;1730688;83;21042;-73
2021/12/07 13:11:58;;;;;;;22.40;12.93;;;;;;;0.95;87.67;94537.48;1731090;83;21033;-73
2021/12/07 13:14:48;;;;;;;24.07;15.20;;;;;;;0.91;87.84;94533.58;1731384;83;21037;-73
2021/12/07 13:17:28;;;;;;;20.37;14.03;;;;;;;0.93;87.83;94537.05;1730791;83;21070;-72
2021/12/07 13:20:31;;;;;;;28.83;16.73;;;;;;;0.91;87.77;94540.07;1730957;83;21042;-73
2021/12/07 13:23:12;;;;;;;24.47;14.40;;;;;;;0.90;87.74;94543.55;1730791;83;21515;-74
2021/12/07 13:25:51;;;;;;;16.43;11.90;;;;;;;0.87;87.84;94547.00;1730942;83;21106;-78